createdAt,value
2023-04-16T00:00:48.546Z,8.46
2023-04-16T00:03:16.770Z,8.40
2023-04-16T00:05:44.266Z,8.59
2023-04-16T00:08:12.562Z,8.38
2023-04-16T00:10:40.117Z,8.17
2023-04-16T00:13:07.690Z,8.37
2023-04-16T00:15:35.565Z,8.42
2023-04-16T00:18:03.385Z,8.29
2023-04-16T00:20:31.222Z,8.31
2023-04-16T00:22:58.842Z,8.21
2023-04-16T00:25:26.237Z,8.24
2023-04-16T00:27:53.680Z,8.34
2023-04-16T00:30:21.089Z,8.10
2023-04-16T00:32:48.625Z,8.11
2023-04-16T00:35:16.218Z,8.16
2023-04-16T00:37:43.765Z,8.12
2023-04-16T00:40:11.553Z,8.13
2023-04-16T00:42:39.012Z,7.83
2023-04-16T00:45:06.903Z,8.03
2023-04-16T00:47:35.009Z,8.10
2023-04-16T00:50:04.593Z,8.06
2023-04-16T00:52:33.295Z,7.94
2023-04-16T00:55:01.285Z,7.83
2023-04-16T00:57:28.820Z,7.49
2023-04-16T00:59:56.787Z,7.67
2023-04-16T01:02:25.268Z,7.85
2023-04-16T01:04:53.386Z,7.82
2023-04-16T01:07:20.813Z,7.96
2023-04-16T01:09:48.185Z,7.68
2023-04-16T01:12:15.743Z,7.71
2023-04-16T01:14:43.188Z,7.82
2023-04-16T01:17:10.858Z,7.66
2023-04-16T01:19:38.633Z,7.66
2023-04-16T01:22:06.206Z,7.33
2023-04-16T01:24:35.072Z,7.45
2023-04-16T01:27:02.658Z,7.39
2023-04-16T01:29:30.332Z,7.45
2023-04-16T01:31:57.684Z,7.40
2023-04-16T01:34:25.651Z,7.41
2023-04-16T01:36:53.078Z,7.36
2023-04-16T01:39:20.542Z,7.37
2023-04-16T01:41:47.882Z,7.11
2023-04-16T01:44:15.644Z,7.32
2023-04-16T01:46:44.242Z,7.26
2023-04-16T01:49:11.970Z,7.43
2023-04-16T01:51:39.628Z,7.15
2023-04-16T01:54:06.953Z,7.06
2023-04-16T01:56:35.092Z,7.20
2023-04-16T01:59:02.402Z,6.98
2023-04-16T02:01:30.911Z,7.32
2023-04-16T02:03:58.545Z,7.05
2023-04-16T02:06:27.521Z,7.10
2023-04-16T02:08:55.622Z,7.06
2023-04-16T02:11:23.845Z,7.11
2023-04-16T02:13:51.412Z,7.18
2023-04-16T02:16:18.793Z,7.07
2023-04-16T02:18:46.419Z,7.12
2023-04-16T02:21:14.599Z,6.96
2023-04-16T02:23:42.166Z,7.01
2023-04-16T02:26:09.551Z,7.09
2023-04-16T02:28:36.966Z,7.17
2023-04-16T02:31:04.394Z,7.27
2023-04-16T02:33:32.042Z,7.22
2023-04-16T02:35:59.533Z,7.32
2023-04-16T02:38:26.913Z,7.14
2023-04-16T02:40:54.258Z,7.05
2023-04-16T02:43:22.004Z,6.85
2023-04-16T02:45:49.493Z,7.10
2023-04-16T02:48:16.872Z,6.79
2023-04-16T02:50:44.301Z,6.90
2023-04-16T02:53:11.726Z,6.86
2023-04-16T02:55:39.378Z,7.00
2023-04-16T02:58:06.796Z,6.92
2023-04-16T03:00:35.533Z,6.88
2023-04-16T03:03:03.548Z,7.05
2023-04-16T03:05:31.081Z,7.10
2023-04-16T03:07:58.471Z,6.96
2023-04-16T03:10:25.822Z,6.91
2023-04-16T03:12:53.644Z,7.04
2023-04-16T03:15:21.085Z,6.98
2023-04-16T03:17:49.049Z,7.08
2023-04-16T03:20:17.247Z,7.17
2023-04-16T03:22:46.491Z,6.74
2023-04-16T03:25:14.263Z,6.89
2023-04-16T03:27:41.884Z,6.94
2023-04-16T03:30:11.741Z,6.97
2023-04-16T03:32:39.904Z,7.07
2023-04-16T03:35:08.149Z,6.75
2023-04-16T03:37:35.921Z,6.90
2023-04-16T03:40:05.856Z,7.10
2023-04-16T03:42:33.734Z,6.95
2023-04-16T03:45:01.295Z,7.12
2023-04-16T03:47:29.226Z,7.28
2023-04-16T03:49:56.593Z,7.31
2023-04-16T03:52:23.923Z,7.29
2023-04-16T03:54:51.575Z,7.34
2023-04-16T03:57:19.022Z,7.55
2023-04-16T03:59:46.437Z,7.40
2023-04-16T04:02:14.046Z,7.54
2023-04-16T04:04:41.464Z,7.55
2023-04-16T04:07:08.891Z,7.80
2023-04-16T04:09:36.680Z,7.74
2023-04-16T04:12:04.143Z,7.63
2023-04-16T04:14:31.774Z,7.82
2023-04-16T04:16:59.405Z,7.97
2023-04-16T04:19:26.806Z,8.10
2023-04-16T04:21:54.309Z,8.12
2023-04-16T04:24:21.828Z,7.98
2023-04-16T04:26:49.216Z,7.94
2023-04-16T04:29:16.840Z,8.09
2023-04-16T04:31:44.393Z,8.15
2023-04-16T04:34:12.419Z,8.08
2023-04-16T04:36:39.778Z,7.95
2023-04-16T04:39:07.542Z,8.13
2023-04-16T04:41:36.438Z,8.00
2023-04-16T04:44:03.925Z,7.95
2023-04-16T04:46:31.537Z,8.13
2023-04-16T04:48:58.874Z,8.04
2023-04-16T04:51:27.199Z,8.20
2023-04-16T04:53:54.511Z,8.34
2023-04-16T04:56:22.266Z,8.45
2023-04-16T04:58:51.138Z,8.36
2023-04-16T05:01:18.572Z,8.59
2023-04-16T05:03:46.358Z,8.42
2023-04-16T05:06:14.035Z,8.56
2023-04-16T05:08:41.474Z,8.71
2023-04-16T05:11:09.460Z,8.94
2023-04-16T05:13:37.184Z,8.61
2023-04-16T05:16:04.994Z,8.64
2023-04-16T05:18:33.489Z,8.82
2023-04-16T05:21:00.937Z,9.11
2023-04-16T05:23:30.667Z,9.13
2023-04-16T05:25:58.038Z,8.96
2023-04-16T05:28:25.417Z,9.11
2023-04-16T05:30:52.990Z,9.14
2023-04-16T05:33:21.011Z,9.27
2023-04-16T05:35:48.421Z,9.08
2023-04-16T05:38:15.820Z,9.09
2023-04-16T05:40:43.340Z,9.26
2023-04-16T05:43:11.101Z,9.29
2023-04-16T05:45:41.357Z,9.53
2023-04-16T05:48:12.502Z,9.45
2023-04-16T05:50:39.960Z,9.58
2023-04-16T05:53:08.686Z,9.82
2023-04-16T05:55:39.268Z,9.85
2023-04-16T05:58:07.067Z,9.96
2023-04-16T06:00:34.861Z,10.08
2023-04-16T06:03:03.162Z,10.08
2023-04-16T06:05:31.426Z,10.08
2023-04-16T06:07:58.754Z,10.07
2023-04-16T06:10:26.203Z,10.31
2023-04-16T06:12:53.988Z,10.31
2023-04-16T06:15:23.021Z,10.09
2023-04-16T06:17:51.089Z,10.13
2023-04-16T06:20:18.683Z,10.27
2023-04-16T06:22:46.274Z,10.35
2023-04-16T06:25:14.480Z,10.31
2023-04-16T06:27:42.593Z,10.71
2023-04-16T06:30:14.602Z,10.82
2023-04-16T06:32:46.201Z,10.70
2023-04-16T06:35:13.794Z,10.61
2023-04-16T06:37:41.474Z,10.56
2023-04-16T06:40:11.041Z,10.65
2023-04-16T06:42:38.485Z,10.75
2023-04-16T06:45:06.600Z,10.97
2023-04-16T06:47:34.079Z,11.24
2023-04-16T06:50:01.502Z,11.42
2023-04-16T06:52:29.800Z,11.35
2023-04-16T06:54:57.196Z,11.67
2023-04-16T06:57:24.609Z,11.62
2023-04-16T06:59:52.114Z,11.50
2023-04-16T07:02:19.648Z,11.60
2023-04-16T07:04:47.138Z,11.65
2023-04-16T07:07:14.922Z,11.63
2023-04-16T07:09:42.441Z,11.94
2023-04-16T07:12:10.085Z,11.93
2023-04-16T07:14:37.714Z,11.84
2023-04-16T07:17:05.293Z,12.11
2023-04-16T07:19:32.951Z,12.34
2023-04-16T07:22:00.726Z,11.87
2023-04-16T07:24:28.254Z,12.08
2023-04-16T07:26:55.684Z,12.43
2023-04-16T07:29:23.049Z,12.49
2023-04-16T07:31:50.474Z,12.32
2023-04-16T07:34:17.936Z,12.52
2023-04-16T07:36:45.307Z,12.47
2023-04-16T07:39:13.355Z,12.39
2023-04-16T07:41:41.339Z,12.65
2023-04-16T07:44:09.436Z,12.72
2023-04-16T07:46:46.466Z,12.80
2023-04-16T07:49:15.200Z,13.17
2023-04-16T07:51:42.751Z,13.03
2023-04-16T07:54:10.848Z,12.77
2023-04-16T07:56:39.002Z,12.72
2023-04-16T07:59:21.085Z,12.91
2023-04-16T08:01:50.281Z,13.21
2023-04-16T08:04:23.318Z,13.51
2023-04-16T08:06:52.045Z,13.57
2023-04-16T08:09:21.151Z,13.37
2023-04-16T08:11:50.067Z,13.63
2023-04-16T08:14:17.718Z,13.61
2023-04-16T08:16:45.402Z,13.73
2023-04-16T08:19:13.018Z,13.89
2023-04-16T08:21:41.168Z,14.11
2023-04-16T08:24:08.943Z,13.97
2023-04-16T08:26:36.406Z,14.35
2023-04-16T08:29:03.913Z,14.51
2023-04-16T08:31:31.954Z,14.88
2023-04-16T08:34:00.816Z,14.82
2023-04-16T08:36:28.227Z,15.22
2023-04-16T08:38:55.590Z,15.36
2023-04-16T08:41:25.221Z,15.46
2023-04-16T08:43:57.840Z,15.60
2023-04-16T08:46:26.793Z,15.86
2023-04-16T08:48:56.289Z,16.01
2023-04-16T08:51:24.331Z,15.95
2023-04-16T08:53:52.867Z,15.91
2023-04-16T08:56:24.959Z,15.98
2023-04-16T08:58:55.075Z,16.32
2023-04-16T09:01:22.940Z,16.71
2023-04-16T09:03:51.289Z,17.08
2023-04-16T09:06:19.899Z,16.99
2023-04-16T09:08:49.358Z,17.25
2023-04-16T09:11:20.508Z,17.28
2023-04-16T09:13:48.528Z,17.48
2023-04-16T09:16:15.995Z,17.58
2023-04-16T09:18:43.458Z,17.78
2023-04-16T09:21:11.378Z,17.56
2023-04-16T09:23:39.272Z,17.88
2023-04-16T09:26:06.678Z,17.81
2023-04-16T09:28:44.146Z,18.09
2023-04-16T09:31:14.026Z,17.90
2023-04-16T09:33:42.987Z,17.94
2023-04-16T09:36:11.448Z,18.23
2023-04-16T09:38:58.230Z,18.51
2023-04-16T09:41:30.466Z,18.79
2023-04-16T09:43:59.636Z,18.21
2023-04-16T09:46:41.103Z,18.36
2023-04-16T09:49:15.544Z,18.24
2023-04-16T09:51:45.175Z,18.54
2023-04-16T09:54:12.727Z,18.68
2023-04-16T09:56:43.696Z,19.05
2023-04-16T09:59:20.577Z,18.77
2023-04-16T10:01:49.860Z,19.05
2023-04-16T10:04:17.673Z,18.91
2023-04-16T10:06:48.563Z,19.11
2023-04-16T10:09:16.245Z,19.38
2023-04-16T10:11:43.958Z,19.54
2023-04-16T10:14:11.726Z,19.00
2023-04-16T10:16:41.269Z,19.41
2023-04-16T10:19:09.379Z,19.56
2023-04-16T10:21:37.146Z,19.90
2023-04-16T10:24:05.090Z,20.02
2023-04-16T10:26:33.442Z,19.09
2023-04-16T10:29:02.698Z,18.80
2023-04-16T10:31:30.942Z,19.48
2023-04-16T10:33:59.041Z,19.60
2023-04-16T10:36:26.804Z,19.60
2023-04-16T10:38:59.734Z,19.80
2023-04-16T10:41:27.846Z,20.25
2023-04-16T10:44:11.647Z,19.60
2023-04-16T10:46:41.925Z,19.81
2023-04-16T10:49:17.801Z,20.19
2023-04-16T10:51:57.648Z,20.86
2023-04-16T10:54:28.636Z,20.27
2023-04-16T10:57:04.369Z,20.18
2023-04-16T10:59:39.885Z,19.94
2023-04-16T11:02:11.979Z,20.07
2023-04-16T11:04:42.454Z,20.19
2023-04-16T11:07:16.606Z,20.60
2023-04-16T11:09:51.353Z,20.40
2023-04-16T11:12:24.208Z,20.02
2023-04-16T11:14:53.894Z,20.03
2023-04-16T11:17:22.035Z,19.95
2023-04-16T11:19:49.613Z,20.13
2023-04-16T11:22:17.904Z,20.28
2023-04-16T11:24:46.619Z,20.24
2023-04-16T11:27:16.164Z,20.45
2023-04-16T11:29:45.777Z,20.23
2023-04-16T11:32:24.405Z,20.23
2023-04-16T11:34:51.826Z,20.54
2023-04-16T11:37:22.066Z,21.06
2023-04-16T11:39:52.204Z,20.87
2023-04-16T11:42:23.078Z,20.90
2023-04-16T11:44:55.280Z,21.23
2023-04-16T11:47:24.880Z,21.12
2023-04-16T11:49:52.481Z,20.44
2023-04-16T11:52:33.743Z,20.30
2023-04-16T11:55:02.735Z,20.57
2023-04-16T11:57:31.904Z,20.92
2023-04-16T12:00:01.658Z,20.62
2023-04-16T12:02:43.932Z,20.43
2023-04-16T12:05:31.984Z,20.52
2023-04-16T12:08:01.748Z,20.30
2023-04-16T12:10:30.792Z,20.26
2023-04-16T12:13:11.840Z,20.80
2023-04-16T12:15:50.113Z,20.85
2023-04-16T12:18:18.938Z,21.15
2023-04-16T12:20:47.310Z,21.41
2023-04-16T12:23:33.034Z,21.31
2023-04-16T12:26:10.615Z,21.82
2023-04-16T12:28:41.776Z,21.83
2023-04-16T12:31:10.856Z,22.19
2023-04-16T12:33:38.326Z,21.84
2023-04-16T12:36:21.122Z,22.33
2023-04-16T12:38:48.457Z,22.30
2023-04-16T12:41:16.087Z,22.43
2023-04-16T12:43:43.509Z,22.70
2023-04-16T12:46:11.202Z,23.15
2023-04-16T12:48:38.557Z,22.65
2023-04-16T12:51:06.622Z,23.50
2023-04-16T12:53:35.224Z,23.69
2023-04-16T12:56:02.780Z,23.62
2023-04-16T12:58:30.465Z,23.59
2023-04-16T13:00:58.482Z,23.72
2023-04-16T13:03:26.240Z,24.19
2023-04-16T13:05:54.230Z,23.05
2023-04-16T13:08:22.010Z,24.26
2023-04-16T13:10:49.597Z,23.98
2023-04-16T13:13:17.594Z,24.11
2023-04-16T13:15:45.080Z,22.57
2023-04-16T13:18:12.786Z,22.83
2023-04-16T13:20:40.158Z,22.93
2023-04-16T13:23:07.588Z,23.10
2023-04-16T13:25:35.209Z,23.62
2023-04-16T13:28:02.637Z,23.21
2023-04-16T13:30:30.321Z,22.98
2023-04-16T13:32:59.233Z,23.49
2023-04-16T13:35:27.480Z,23.85
2023-04-16T13:37:54.934Z,23.42
2023-04-16T13:40:22.476Z,22.82
2023-04-16T13:42:49.839Z,22.18
2023-04-16T13:45:17.421Z,21.66
2023-04-16T13:47:44.985Z,21.72
2023-04-16T13:50:12.511Z,22.19
2023-04-16T13:52:40.159Z,22.48
2023-04-16T13:55:09.717Z,22.25
2023-04-16T13:57:37.531Z,22.19
2023-04-16T14:00:05.479Z,22.43
2023-04-16T14:02:33.801Z,22.54
2023-04-16T14:05:01.255Z,21.81
2023-04-16T14:07:29.320Z,21.71
2023-04-16T14:09:56.772Z,21.60
2023-04-16T14:12:25.464Z,21.22
2023-04-16T14:14:52.984Z,20.98
2023-04-16T14:17:20.342Z,21.07
2023-04-16T14:19:47.753Z,21.05
2023-04-16T14:22:17.863Z,19.92
2023-04-16T14:24:45.452Z,19.60
2023-04-16T14:27:12.842Z,19.27
2023-04-16T14:29:41.085Z,18.85
2023-04-16T14:32:08.671Z,18.85
2023-04-16T14:34:36.368Z,18.64
2023-04-16T14:37:04.397Z,18.70
2023-04-16T14:39:32.009Z,18.59
2023-04-16T14:41:59.582Z,18.37
2023-04-16T14:44:27.085Z,18.34
2023-04-16T14:46:55.450Z,18.14
2023-04-16T14:49:22.956Z,18.13
2023-04-16T14:51:50.716Z,17.92
2023-04-16T14:54:19.581Z,18.16
2023-04-16T14:56:47.594Z,18.15
2023-04-16T14:59:15.131Z,17.67
2023-04-16T15:01:43.211Z,17.66
2023-04-16T15:04:10.917Z,17.43
2023-04-16T15:06:38.522Z,17.33
2023-04-16T15:09:07.540Z,17.39
2023-04-16T15:11:35.242Z,17.56
2023-04-16T15:14:02.655Z,17.52
2023-04-16T15:16:30.740Z,16.97
2023-04-16T15:18:58.830Z,17.27
2023-04-16T15:21:28.050Z,17.29
2023-04-16T15:23:55.446Z,17.23
2023-04-16T15:26:23.331Z,17.21
2023-04-16T15:28:50.685Z,16.95
2023-04-16T15:31:20.953Z,17.08
2023-04-16T15:33:49.643Z,16.71
2023-04-16T15:36:17.169Z,16.26
2023-04-16T15:38:44.922Z,16.39
2023-04-16T15:41:12.854Z,16.30
2023-04-16T15:43:40.651Z,16.21
2023-04-16T15:46:08.955Z,16.30
2023-04-16T15:48:36.485Z,16.01
2023-04-16T15:51:06.052Z,15.87
2023-04-16T15:53:34.661Z,16.03
2023-04-16T15:56:02.099Z,15.99
2023-04-16T15:58:29.641Z,15.90
2023-04-16T16:00:57.218Z,15.86
2023-04-16T16:03:24.709Z,15.76
2023-04-16T16:05:52.248Z,15.84
2023-04-16T16:08:19.764Z,15.66
2023-04-16T16:10:47.478Z,15.59
2023-04-16T16:13:18.170Z,15.68
2023-04-16T16:15:45.803Z,15.49
2023-04-16T16:18:13.153Z,15.43
2023-04-16T16:20:40.716Z,15.45
2023-04-16T16:23:08.162Z,15.42
2023-04-16T16:25:36.020Z,15.22
2023-04-16T16:28:06.310Z,15.10
2023-04-16T16:30:34.326Z,15.01
2023-04-16T16:33:01.805Z,15.06
2023-04-16T16:35:29.571Z,14.95
2023-04-16T16:37:57.404Z,14.97
2023-04-16T16:40:25.353Z,14.88
2023-04-16T16:42:52.905Z,14.81
2023-04-16T16:45:20.281Z,14.73
2023-04-16T16:47:48.883Z,14.55
2023-04-16T16:50:16.738Z,14.49
2023-04-16T16:52:44.656Z,14.39
2023-04-16T16:55:12.197Z,14.53
2023-04-16T16:57:39.912Z,14.43
2023-04-16T17:00:14.461Z,14.29
2023-04-16T17:02:42.173Z,14.24
2023-04-16T17:05:09.934Z,14.35
2023-04-16T17:07:37.971Z,14.18
2023-04-16T17:10:07.002Z,14.05
2023-04-16T17:12:35.686Z,13.97
2023-04-16T17:15:03.163Z,14.06
2023-04-16T17:17:31.760Z,13.83
2023-04-16T17:20:01.018Z,13.80
2023-04-16T17:22:28.702Z,13.82
2023-04-16T17:24:56.355Z,13.46
2023-04-16T17:27:23.697Z,13.53
2023-04-16T17:29:51.196Z,13.62
2023-04-16T17:32:18.763Z,13.62
2023-04-16T17:34:46.394Z,13.49
2023-04-16T17:37:14.190Z,13.45
2023-04-16T17:39:41.681Z,13.36
2023-04-16T17:42:09.104Z,13.24
2023-04-16T17:44:36.466Z,13.21
2023-04-16T17:47:04.454Z,13.23
2023-04-16T17:49:31.973Z,13.20
2023-04-16T17:51:59.358Z,13.14
2023-04-16T17:54:26.733Z,13.24
2023-04-16T17:56:54.093Z,13.25
2023-04-16T17:59:22.050Z,13.17
2023-04-16T18:01:49.772Z,12.96
2023-04-16T18:04:17.802Z,12.83
2023-04-16T18:06:45.782Z,12.85
2023-04-16T18:09:14.402Z,12.83
2023-04-16T18:11:42.321Z,12.88
2023-04-16T18:14:11.883Z,12.68
2023-04-16T18:16:39.525Z,12.59
2023-04-16T18:19:07.067Z,12.56
2023-04-16T18:21:35.884Z,12.44
2023-04-16T18:24:03.619Z,12.38
2023-04-16T18:26:32.372Z,12.38
2023-04-16T18:29:03.981Z,12.39
2023-04-16T18:31:32.180Z,12.11
2023-04-16T18:33:59.751Z,12.21
2023-04-16T18:36:27.455Z,12.21
2023-04-16T18:39:02.100Z,12.14
2023-04-16T18:41:31.271Z,12.08
2023-04-16T18:43:58.728Z,12.12
2023-04-16T18:46:27.536Z,12.05
2023-04-16T18:48:55.832Z,11.89
2023-04-16T18:51:23.418Z,11.97
2023-04-16T18:53:53.309Z,11.83
2023-04-16T18:56:20.963Z,11.90
2023-04-16T18:58:48.341Z,11.89
2023-04-16T19:01:16.675Z,11.77
2023-04-16T19:03:44.216Z,11.75
2023-04-16T19:06:11.723Z,11.77
2023-04-16T19:08:39.359Z,11.76
2023-04-16T19:11:06.726Z,11.60
2023-04-16T19:13:34.266Z,11.61
2023-04-16T19:16:02.342Z,11.51
2023-04-16T19:18:29.854Z,11.50
2023-04-16T19:21:01.276Z,11.53
2023-04-16T19:23:29.281Z,11.34
2023-04-16T19:25:57.223Z,11.35
2023-04-16T19:28:25.808Z,11.31
2023-04-16T19:30:54.092Z,11.18
2023-04-16T19:33:21.869Z,11.08
2023-04-16T19:35:49.304Z,11.10
2023-04-16T19:38:17.164Z,11.06
2023-04-16T19:40:46.743Z,10.88
2023-04-16T19:43:14.746Z,10.96
2023-04-16T19:45:46.682Z,10.91
2023-04-16T19:48:15.652Z,10.90
2023-04-16T19:50:43.141Z,10.79
2023-04-16T19:53:11.611Z,10.91
2023-04-16T19:55:39.904Z,10.75
2023-04-16T19:58:10.718Z,10.89
2023-04-16T20:00:43.457Z,10.86
2023-04-16T20:03:11.111Z,10.79
2023-04-16T20:05:39.029Z,10.84
2023-04-16T20:08:06.627Z,10.59
2023-04-16T20:10:34.284Z,10.50
2023-04-16T20:13:01.731Z,10.58
2023-04-16T20:15:29.476Z,10.68
2023-04-16T20:17:56.926Z,10.50
2023-04-16T20:20:24.536Z,10.58
2023-04-16T20:22:51.967Z,10.56
2023-04-16T20:25:19.672Z,10.40
2023-04-16T20:27:47.159Z,10.29
2023-04-16T20:30:14.922Z,10.40
2023-04-16T20:32:42.549Z,10.36
2023-04-16T20:35:11.584Z,10.41
2023-04-16T20:37:39.235Z,10.31
2023-04-16T20:40:08.945Z,10.38
2023-04-16T20:42:36.670Z,10.31
2023-04-16T20:45:04.993Z,10.26
2023-04-16T20:47:35.890Z,10.20
2023-04-16T20:50:03.900Z,10.09
2023-04-16T20:52:31.482Z,10.01
2023-04-16T20:54:59.071Z,9.98
2023-04-16T20:57:28.174Z,10.00
2023-04-16T20:59:56.516Z,9.86
2023-04-16T21:02:24.446Z,9.98
2023-04-16T21:04:53.106Z,9.91
2023-04-16T21:07:20.998Z,9.92
2023-04-16T21:09:48.368Z,9.92
2023-04-16T21:12:16.089Z,9.86
2023-04-16T21:14:43.575Z,9.83
2023-04-16T21:17:10.884Z,9.67
2023-04-16T21:19:38.322Z,9.79
2023-04-16T21:22:06.010Z,9.56
2023-04-16T21:24:34.160Z,9.64
2023-04-16T21:27:03.457Z,9.48
2023-04-16T21:29:30.982Z,9.49
2023-04-16T21:31:58.411Z,9.65
2023-04-16T21:34:25.743Z,9.46
2023-04-16T21:36:53.213Z,9.62
2023-04-16T21:39:21.899Z,9.48
2023-04-16T21:41:49.562Z,9.58
2023-04-16T21:44:16.998Z,9.49
2023-04-16T21:46:44.633Z,9.33
2023-04-16T21:49:12.543Z,9.30
2023-04-16T21:51:40.695Z,9.39
2023-04-16T21:54:08.213Z,9.40
2023-04-16T21:56:36.099Z,9.35
2023-04-16T21:59:03.809Z,9.36
2023-04-16T22:01:31.685Z,9.24
2023-04-16T22:03:59.174Z,9.25
2023-04-16T22:06:27.307Z,9.18
2023-04-16T22:08:54.700Z,9.32
2023-04-16T22:11:22.673Z,9.26
2023-04-16T22:13:50.716Z,9.10
2023-04-16T22:16:18.273Z,9.18
2023-04-16T22:18:47.374Z,9.12
2023-04-16T22:21:14.932Z,9.14
2023-04-16T22:23:42.364Z,9.25
2023-04-16T22:26:10.143Z,9.02
2023-04-16T22:28:37.571Z,9.05
2023-04-16T22:31:05.101Z,9.05
2023-04-16T22:33:32.475Z,8.94
2023-04-16T22:36:00.689Z,8.86
2023-04-16T22:38:28.089Z,9.01
2023-04-16T22:40:55.447Z,8.99
2023-04-16T22:43:23.095Z,9.06
2023-04-16T22:46:00.364Z,8.87
2023-04-16T22:48:28.153Z,8.87
2023-04-16T22:50:55.508Z,8.88
2023-04-16T22:53:23.174Z,8.81
2023-04-16T22:55:51.204Z,8.91
2023-04-16T22:58:18.756Z,8.91
2023-04-16T23:00:47.658Z,8.85
2023-04-16T23:03:15.746Z,8.75
2023-04-16T23:05:43.156Z,8.77
2023-04-16T23:08:10.710Z,8.83
2023-04-16T23:10:38.234Z,8.69
2023-04-16T23:13:05.883Z,8.54
2023-04-16T23:15:33.273Z,8.69
2023-04-16T23:18:00.879Z,8.45
2023-04-16T23:20:29.147Z,8.48
2023-04-16T23:22:56.600Z,8.44
2023-04-16T23:25:24.212Z,8.37
2023-04-16T23:27:51.921Z,8.49
2023-04-16T23:30:19.412Z,8.46
2023-04-16T23:32:46.969Z,8.40
2023-04-16T23:35:20.537Z,8.32
2023-04-16T23:37:47.925Z,8.29
2023-04-16T23:40:15.801Z,8.39
2023-04-16T23:42:44.012Z,8.34
2023-04-16T23:45:11.787Z,8.46
2023-04-16T23:47:39.355Z,8.29
2023-04-16T23:50:07.208Z,8.35
2023-04-16T23:52:35.838Z,8.38
2023-04-16T23:55:03.380Z,8.26
2023-04-16T23:57:31.084Z,8.27
2023-04-16T23:59:58.504Z,8.34
